Time;durP1;ratioP1;P1;durP2;ratioP2;P2;SDS_P1;SDS_P2;PMS_P1;PMS_P2;Temp;Humidity;BMP_temperature;BMP_pressure;BME280_temperature;BME280_humidity;BME280_pressure;Samples;Min_cycle;Max_cycle;Signal;HPM_P1;HPM_P2
2023/10/06 00:00:42;;;;;;;;;;;23.40;71.40;;;;;;5023859;28;42945;-78
2023/10/06 00:03:11;;;;;;;;;;;23.50;68.70;;;;;;5020113;28;44455;-78
2023/10/06 00:05:38;;;;;;;;;;;23.10;71.70;;;;;;5023946;28;42895;-79
2023/10/06 00:08:05;;;;;;;;;;;23.20;71.80;;;;;;5015933;28;43713;-79
2023/10/06 00:10:32;;;;;;;;;;;23.20;71.50;;;;;;5025430;28;43246;-78
2023/10/06 00:13:05;;;;;;;;;;;23.30;71.80;;;;;;5036964;28;43619;-78
2023/10/06 00:15:40;;;;;;;;;;;23.30;71.80;;;;;;5023559;28;43034;-78
2023/10/06 00:18:16;;;;;;;;;;;23.20;71.80;;;;;;5007285;28;44970;-78
2023/10/06 00:20:46;;;;;;;;;;;23.30;71.90;;;;;;5021962;28;42927;-78
2023/10/06 00:23:15;;;;;;;;;;;23.20;71.80;;;;;;5022333;28;44525;-79
2023/10/06 00:25:43;;;;;;;;;;;23.20;71.80;;;;;;5018745;28;43138;-79
2023/10/06 00:28:19;;;;;;;;;;;23.20;70.60;;;;;;5011810;28;43460;-79
2023/10/06 00:30:48;;;;;;;;;;;23.20;71.80;;;;;;5025941;28;43032;-79
2023/10/06 00:33:17;;;;;;;;;;;23.20;71.90;;;;;;5025456;28;44320;-78
2023/10/06 00:35:44;;;;;;;;;;;23.20;69.30;;;;;;5025618;28;43069;-79
2023/10/06 00:38:13;;;;;;;;;;;24.10;72.30;;;;;;5009946;28;43916;-78
2023/10/06 00:40:42;;;;;;;;;;;23.10;72.00;;;;;;5025754;28;42922;-78
2023/10/06 00:43:08;;;;;;;;;;;23.00;72.00;;;;;;5025169;28;43688;-79
2023/10/06 00:45:39;;;;;;;;;;;22.80;71.20;;;;;;5025942;28;42922;-79
2023/10/06 00:48:13;;;;;;;;;;;23.10;72.00;;;;;;5025594;28;43734;-79
2023/10/06 00:50:39;;;;;;;;;;;23.30;71.80;;;;;;5025909;28;43035;-79
2023/10/06 00:53:04;;;;;;;;;;;23.30;72.00;;;;;;5037921;28;44223;-79
2023/10/06 00:55:30;;;;;;;;;;;22.90;71.90;;;;;;5042806;28;42905;-79
2023/10/06 00:57:56;;;;;;;;;;;23.10;71.90;;;;;;5025917;28;43394;-79
2023/10/06 01:00:22;;;;;;;;;;;23.10;71.90;;;;;;5026519;28;43036;-79
2023/10/06 01:02:48;;;;;;;;;;;22.90;71.90;;;;;;5026554;28;43517;-78
2023/10/06 01:05:17;;;;;;;;;;;22.70;72.00;;;;;;5032270;28;43005;-79
2023/10/06 01:07:45;;;;;;;;;;;22.80;72.10;;;;;;5007898;28;43736;-78
2023/10/06 01:10:17;;;;;;;;;;;23.00;72.10;;;;;;5026019;28;42939;-79
2023/10/06 01:12:43;;;;;;;;;;;22.90;71.90;;;;;;5032594;28;43008;-79
2023/10/06 01:15:19;;;;;;;;;;;23.00;72.10;;;;;;5026922;28;42883;-79
2023/10/06 01:17:48;;;;;;;;;;;23.10;71.30;;;;;;5033983;28;43670;-79
2023/10/06 01:22:58;;;;;;;;;;;22.90;70.50;;;;;;5038057;28;42985;-78
2023/10/06 01:25:24;;;;;;;;;;;23.00;72.10;;;;;;5023188;28;43207;-79
2023/10/06 01:27:50;;;;;;;;;;;23.00;71.70;;;;;;5025586;28;42980;-78
2023/10/06 01:32:45;;;;;;;;;;;22.90;72.00;;;;;;5025395;28;43426;-79
2023/10/06 01:35:12;;;;;;;;;;;22.90;71.60;;;;;;5024569;28;42968;-79
2023/10/06 01:37:42;;;;;;;;;;;23.00;72.30;;;;;;5025118;28;42980;-78
2023/10/06 01:40:16;;;;;;;;;;;23.00;69.90;;;;;;5025232;28;42951;-78
2023/10/06 01:42:42;;;;;;;;;;;23.00;71.80;;;;;;5027528;28;43516;-79
2023/10/06 01:45:14;;;;;;;;;;;23.00;72.10;;;;;;5027883;28;42958;-79
2023/10/06 01:47:40;;;;;;;;;;;23.00;71.80;;;;;;5025583;28;43490;-79
2023/10/06 01:50:06;;;;;;;;;;;22.80;72.10;;;;;;5025057;28;43035;-78
2023/10/06 01:52:32;;;;;;;;;;;22.80;72.20;;;;;;5024723;28;44070;-79
2023/10/06 01:55:03;;;;;;;;;;;23.00;72.70;;;;;;5026336;28;42968;-78
2023/10/06 01:57:29;;;;;;;;;;;23.00;71.00;;;;;;5013409;28;43515;-79
2023/10/06 01:59:54;;;;;;;;;;;23.00;72.90;;;;;;5030859;28;42996;-79
2023/10/06 02:02:23;;;;;;;;;;;23.00;72.50;;;;;;5035855;28;44163;-79
2023/10/06 02:04:50;;;;;;;;;;;22.90;72.10;;;;;;5040396;28;43180;-79
2023/10/06 02:07:18;;;;;;;;;;;22.90;72.20;;;;;;5031941;28;43785;-78
2023/10/06 02:09:44;;;;;;;;;;;23.10;72.80;;;;;;5025051;28;42841;-78
2023/10/06 02:12:09;;;;;;;;;;;22.90;72.80;;;;;;5026702;28;43187;-78
2023/10/06 02:14:35;;;;;;;;;;;22.90;72.30;;;;;;5036428;28;42822;-78
2023/10/06 02:17:08;;;;;;;;;;;23.00;72.90;;;;;;5027792;28;42995;-78
2023/10/06 02:19:34;;;;;;;;;;;22.60;72.20;;;;;;5023322;28;43019;-79
2023/10/06 02:22:00;;;;;;;;;;;22.70;72.40;;;;;;5025255;28;43428;-78
2023/10/06 02:24:25;;;;;;;;;;;23.10;73.20;;;;;;5024735;28;43117;-78
2023/10/06 02:26:58;;;;;;;;;;;22.80;73.10;;;;;;5024931;28;43796;-78
2023/10/06 02:29:23;;;;;;;;;;;22.90;73.20;;;;;;5024086;28;43094;-79
2023/10/06 02:31:49;;;;;;;;;;;22.80;73.20;;;;;;5024546;28;42956;-79
2023/10/06 02:34:28;;;;;;;;;;;22.90;73.40;;;;;;5028575;28;43054;-79
2023/10/06 02:36:54;;;;;;;;;;;22.80;73.30;;;;;;5034886;28;43023;-79
2023/10/06 02:39:20;;;;;;;;;;;22.80;73.60;;;;;;5023886;28;42965;-79
2023/10/06 02:41:47;;;;;;;;;;;22.80;73.50;;;;;;5024329;28;43580;-79
2023/10/06 02:44:15;;;;;;;;;;;22.80;73.50;;;;;;5024987;28;43159;-78
2023/10/06 02:46:44;;;;;;;;;;;22.70;71.90;;;;;;5023880;28;43574;-78
2023/10/06 02:49:13;;;;;;;;;;;22.70;73.50;;;;;;5023233;28;43611;-79
2023/10/06 02:52:00;;;;;;;;;;;22.70;71.20;;;;;;5030063;28;43073;-79
2023/10/06 02:54:28;;;;;;;;;;;22.90;73.40;;;;;;5035335;28;43017;-79
2023/10/06 02:56:55;;;;;;;;;;;22.70;73.70;;;;;;5024391;28;43826;-79
2023/10/06 02:59:21;;;;;;;;;;;22.70;73.60;;;;;;5024256;28;42989;-78
2023/10/06 03:02:06;;;;;;;;;;;22.80;73.70;;;;;;5023645;28;43526;-78
2023/10/06 03:04:35;;;;;;;;;;;22.80;73.50;;;;;;5024610;28;43040;-78
2023/10/06 03:07:04;;;;;;;;;;;22.80;73.10;;;;;;5006498;28;44589;-79
2023/10/06 03:09:37;;;;;;;;;;;23.00;73.90;;;;;;5023416;28;43023;-78
2023/10/06 03:12:20;;;;;;;;;;;22.90;73.80;;;;;;5023911;28;43601;-79
2023/10/06 03:14:45;;;;;;;;;;;22.80;73.30;;;;;;5030974;28;43154;-79
2023/10/06 03:17:12;;;;;;;;;;;22.80;73.70;;;;;;5031523;28;43650;-78
2023/10/06 03:19:41;;;;;;;;;;;22.80;73.70;;;;;;5022878;28;42980;-78
2023/10/06 03:22:09;;;;;;;;;;;22.80;73.60;;;;;;5023716;28;43943;-78
2023/10/06 03:24:40;;;;;;;;;;;22.70;73.90;;;;;;5006202;28;42926;-78
2023/10/06 03:27:12;;;;;;;;;;;22.80;73.40;;;;;;5023990;28;43523;-78
2023/10/06 03:29:53;;;;;;;;;;;22.70;73.20;;;;;;5023374;28;43121;-78
2023/10/06 03:32:39;;;;;;;;;;;23.00;73.70;;;;;;5023686;28;43642;-78
2023/10/06 03:37:52;;;;;;;;;;;22.90;73.10;;;;;;5026477;28;42920;-79
2023/10/06 03:40:23;;;;;;;;;;;22.90;71.40;;;;;;5023842;28;42966;-79
2023/10/06 03:42:49;;;;;;;;;;;22.80;71.60;;;;;;5023348;28;43359;-79
2023/10/06 03:45:27;;;;;;;;;;;22.80;73.70;;;;;;5024870;28;43045;-79
2023/10/06 03:48:08;;;;;;;;;;;22.80;72.20;;;;;;5026097;28;43991;-79
2023/10/06 03:50:37;;;;;;;;;;;22.70;74.00;;;;;;5023235;28;43035;-78
2023/10/06 03:53:03;;;;;;;;;;;23.00;73.60;;;;;;5029651;28;43404;-79
2023/10/06 03:55:28;;;;;;;;;;;23.00;72.90;;;;;;5030245;28;42965;-78
2023/10/06 03:57:54;;;;;;;;;;;22.80;73.20;;;;;;5023971;28;43647;-79
2023/10/06 04:00:26;;;;;;;;;;;22.60;72.90;;;;;;5024526;28;43780;-78
2023/10/06 04:02:52;;;;;;;;;;;23.00;72.60;;;;;;5032859;28;44493;-78
2023/10/06 04:05:18;;;;;;;;;;;22.80;72.70;;;;;;5028138;28;42996;-78
2023/10/06 04:07:45;;;;;;;;;;;22.80;72.10;;;;;;5026298;28;44401;-79
2023/10/06 04:10:14;;;;;;;;;;;23.20;72.90;;;;;;5026476;28;42937;-78
2023/10/06 04:12:40;;;;;;;;;;;22.90;72.80;;;;;;5026633;28;43551;-79
2023/10/06 04:15:05;;;;;;;;;;;22.90;72.90;;;;;;5028219;28;42990;-79
2023/10/06 04:17:31;;;;;;;;;;;22.90;72.30;;;;;;5023789;28;42962;-78
2023/10/06 04:19:56;;;;;;;;;;;23.00;73.40;;;;;;5016676;28;43176;-79
2023/10/06 04:22:22;;;;;;;;;;;22.80;72.90;;;;;;5027620;28;44190;-79
2023/10/06 04:24:47;;;;;;;;;;;23.30;73.50;;;;;;5026812;28;43000;-79
2023/10/06 04:27:13;;;;;;;;;;;22.80;73.60;;;;;;5025862;28;42968;-78
2023/10/06 04:29:40;;;;;;;;;;;22.80;73.10;;;;;;5017008;28;43176;-78
2023/10/06 04:32:08;;;;;;;;;;;22.70;73.20;;;;;;5036193;28;43064;-79
2023/10/06 04:34:36;;;;;;;;;;;22.70;73.50;;;;;;5047056;28;43064;-78
2023/10/06 04:37:03;;;;;;;;;;;22.80;73.20;;;;;;5026261;28;44448;-77
2023/10/06 04:39:28;;;;;;;;;;;22.70;73.60;;;;;;5026049;28;43122;-77
2023/10/06 04:41:55;;;;;;;;;;;23.00;74.20;;;;;;5026424;28;42857;-78
2023/10/06 04:44:21;;;;;;;;;;;22.80;73.20;;;;;;5031955;28;43197;-78
2023/10/06 04:46:46;;;;;;;;;;;22.70;73.40;;;;;;5040197;28;42439;-81
2023/10/06 04:49:12;;;;;;;;;;;22.60;73.60;;;;;;5040844;28;42877;-79
2023/10/06 04:51:38;;;;;;;;;;;22.70;73.90;;;;;;5034663;28;43000;-78
2023/10/06 04:54:07;;;;;;;;;;;22.70;73.50;;;;;;5035556;28;43003;-78
2023/10/06 04:56:33;;;;;;;;;;;22.70;73.40;;;;;;5025971;28;42948;-78
2023/10/06 04:58:59;;;;;;;;;;;22.80;73.80;;;;;;5041676;28;43285;-77
2023/10/06 05:01:25;;;;;;;;;;;22.70;73.80;;;;;;5025466;28;43015;-78
2023/10/06 05:03:50;;;;;;;;;;;22.70;73.80;;;;;;5036218;28;42972;-77
2023/10/06 05:06:16;;;;;;;;;;;22.80;73.90;;;;;;5033352;28;43722;-78
2023/10/06 05:08:46;;;;;;;;;;;22.70;73.80;;;;;;5027532;28;42964;-79
2023/10/06 05:11:12;;;;;;;;;;;22.80;73.50;;;;;;5022870;28;43342;-76
2023/10/06 05:13:39;;;;;;;;;;;22.80;73.60;;;;;;5019669;28;45080;-78
2023/10/06 05:16:05;;;;;;;;;;;22.80;73.90;;;;;;5025284;28;43058;-77
2023/10/06 05:18:33;;;;;;;;;;;22.90;74.20;;;;;;5040128;28;43076;-79
2023/10/06 05:20:58;;;;;;;;;;;22.70;73.70;;;;;;5033783;28;42995;-78
2023/10/06 05:23:24;;;;;;;;;;;22.70;74.30;;;;;;5026190;28;42959;-78
2023/10/06 05:25:49;;;;;;;;;;;22.70;74.50;;;;;;5032806;28;43463;-77
2023/10/06 05:28:18;;;;;;;;;;;22.70;74.60;;;;;;5037475;28;43014;-77
2023/10/06 05:30:44;;;;;;;;;;;22.70;73.00;;;;;;5024889;28;43378;-78
2023/10/06 05:33:10;;;;;;;;;;;22.50;74.90;;;;;;5026193;28;42931;-78
2023/10/06 05:35:40;;;;;;;;;;;22.70;75.10;;;;;;5025486;28;43855;-78
2023/10/06 05:38:13;;;;;;;;;;;22.50;75.00;;;;;;5024943;28;42893;-78
2023/10/06 05:40:46;;;;;;;;;;;22.60;72.60;;;;;;5023304;28;43870;-77
2023/10/06 05:43:12;;;;;;;;;;;22.30;72.70;;;;;;5025070;28;43100;-78
2023/10/06 05:45:39;;;;;;;;;;;22.50;75.20;;;;;;5024709;28;43208;-77
2023/10/06 05:48:08;;;;;;;;;;;22.60;75.20;;;;;;5024936;28;42995;-78
2023/10/06 05:50:35;;;;;;;;;;;22.40;74.60;;;;;;5025516;28;42803;-78
2023/10/06 05:53:04;;;;;;;;;;;22.50;74.60;;;;;;5024442;28;43059;-77
2023/10/06 05:55:37;;;;;;;;;;;22.50;72.80;;;;;;5024108;28;42925;-78
2023/10/06 05:58:03;;;;;;;;;;;22.60;73.00;;;;;;5007307;28;43036;-79
2023/10/06 06:00:30;;;;;;;;;;;22.70;75.40;;;;;;5025548;28;42951;-79
2023/10/06 06:03:06;;;;;;;;;;;22.50;74.60;;;;;;5026670;28;42992;-79
2023/10/06 06:05:33;;;;;;;;;;;22.50;75.10;;;;;;5041323;28;45096;-79
2023/10/06 06:08:00;;;;;;;;;;;22.50;74.90;;;;;;5026359;28;42970;-78
2023/10/06 06:10:28;;;;;;;;;;;22.60;74.90;;;;;;5037594;28;43988;-79
2023/10/06 06:12:54;;;;;;;;;;;22.60;74.80;;;;;;5034116;28;43139;-77
2023/10/06 06:15:21;;;;;;;;;;;22.50;74.50;;;;;;5041116;28;44259;-78
2023/10/06 06:17:47;;;;;;;;;;;22.60;75.20;;;;;;5032273;28;42960;-78
2023/10/06 06:20:14;;;;;;;;;;;22.70;74.70;;;;;;5047239;28;44167;-78
2023/10/06 06:22:43;;;;;;;;;;;22.60;75.30;;;;;;5025297;28;43015;-78
2023/10/06 06:25:09;;;;;;;;;;;22.60;75.30;;;;;;5035986;28;43016;-79
2023/10/06 06:27:35;;;;;;;;;;;22.10;74.40;;;;;;5026433;28;43014;-79
2023/10/06 06:30:00;;;;;;;;;;;22.70;75.20;;;;;;5024846;28;43786;-78
2023/10/06 06:32:25;;;;;;;;;;;22.80;74.70;;;;;;5025267;28;43301;-78
2023/10/06 06:34:51;;;;;;;;;;;22.70;74.90;;;;;;5025339;28;43489;-78
2023/10/06 06:37:17;;;;;;;;;;;22.70;75.20;;;;;;5024872;28;42940;-78
2023/10/06 06:39:44;;;;;;;;;;;22.80;74.90;;;;;;5025110;28;42931;-79
2023/10/06 06:42:10;;;;;;;;;;;22.70;75.00;;;;;;5025092;28;43140;-78
2023/10/06 06:44:36;;;;;;;;;;;22.80;74.90;;;;;;5024684;28;42975;-78
2023/10/06 06:47:02;;;;;;;;;;;23.00;74.90;;;;;;5025239;28;42963;-78
2023/10/06 06:49:28;;;;;;;;;;;22.80;74.70;;;;;;5024769;28;43635;-78
2023/10/06 06:51:54;;;;;;;;;;;22.90;74.30;;;;;;5025030;28;42911;-79
2023/10/06 06:54:23;;;;;;;;;;;22.90;74.80;;;;;;5024279;28;44318;-78
2023/10/06 06:56:49;;;;;;;;;;;22.90;74.10;;;;;;5024612;28;42885;-81
2023/10/06 06:59:14;;;;;;;;;;;23.00;74.10;;;;;;5028008;28;42976;-80
2023/10/06 07:01:40;;;;;;;;;;;23.00;74.00;;;;;;5042518;28;43002;-80
2023/10/06 07:04:06;;;;;;;;;;;23.10;74.30;;;;;;5043138;28;43344;-79
2023/10/06 07:06:32;;;;;;;;;;;23.00;74.10;;;;;;5026685;28;42959;-80
2023/10/06 07:08:57;;;;;;;;;;;23.30;74.30;;;;;;5044885;28;43755;-79
2023/10/06 07:11:23;;;;;;;;;;;23.10;73.70;;;;;;5035643;28;42842;-78
2023/10/06 07:13:48;;;;;;;;;;;23.10;73.20;;;;;;5026318;28;43906;-79
2023/10/06 07:16:14;;;;;;;;;;;23.30;74.20;;;;;;5024424;28;42994;-80
2023/10/06 07:18:40;;;;;;;;;;;22.90;73.30;;;;;;5026968;28;42942;-79
2023/10/06 07:21:09;;;;;;;;;;;22.90;73.50;;;;;;5039680;28;42985;-79
2023/10/06 07:23:37;;;;;;;;;;;23.20;71.40;;;;;;5055741;28;42832;-80
2023/10/06 07:26:13;;;;;;;;;;;23.10;73.50;;;;;;5052442;28;42983;-79
2023/10/06 07:28:39;;;;;;;;;;;23.00;71.50;;;;;;5041671;28;42869;-79
2023/10/06 07:31:13;;;;;;;;;;;23.00;73.70;;;;;;5028663;28;60574;-79
2023/10/06 07:33:39;;;;;;;;;;;22.50;71.00;;;;;;5024777;28;43002;-79
2023/10/06 07:36:15;;;;;;;;;;;23.10;73.70;;;;;;5015220;28;43104;-80
2023/10/06 07:38:41;;;;;;;;;;;23.00;71.20;;;;;;5015924;28;42827;-79
2023/10/06 07:41:07;;;;;;;;;;;23.00;73.20;;;;;;5023395;28;43067;-79
2023/10/06 07:43:32;;;;;;;;;;;23.20;73.50;;;;;;5027149;28;43482;-80
2023/10/06 07:46:03;;;;;;;;;;;23.20;73.20;;;;;;5027551;28;43069;-80
2023/10/06 07:48:32;;;;;;;;;;;23.40;73.30;;;;;;5026026;28;43429;-80
2023/10/06 07:51:04;;;;;;;;;;;23.30;73.30;;;;;;5023194;28;42974;-80
2023/10/06 07:53:29;;;;;;;;;;;23.20;70.80;;;;;;5025848;28;43043;-80
2023/10/06 07:56:06;;;;;;;;;;;23.20;73.20;;;;;;5028668;28;43007;-81
2023/10/06 07:58:37;;;;;;;;;;;23.20;71.20;;;;;;5023330;28;42992;-80
2023/10/06 08:01:05;;;;;;;;;;;23.20;71.00;;;;;;5023883;28;42849;-80
2023/10/06 08:03:32;;;;;;;;;;;23.30;73.30;;;;;;5028579;28;43583;-80
2023/10/06 08:06:01;;;;;;;;;;;23.00;72.40;;;;;;5040184;28;43096;-80
2023/10/06 08:08:28;;;;;;;;;;;23.10;73.00;;;;;;5024439;28;43626;-79
2023/10/06 08:10:56;;;;;;;;;;;23.20;72.80;;;;;;5036475;28;43112;-80
2023/10/06 08:13:21;;;;;;;;;;;23.20;73.20;;;;;;5033240;28;43134;-80
2023/10/06 08:15:47;;;;;;;;;;;23.20;73.10;;;;;;5042012;28;42892;-79
2023/10/06 08:18:13;;;;;;;;;;;23.30;72.60;;;;;;5024482;28;43587;-80
2023/10/06 08:20:40;;;;;;;;;;;23.20;72.90;;;;;;5025680;28;42762;-79
2023/10/06 08:23:07;;;;;;;;;;;25.30;73.50;;;;;;5023417;28;43505;-79
2023/10/06 08:25:32;;;;;;;;;;;23.20;72.40;;;;;;5023962;28;43081;-79
2023/10/06 08:27:58;;;;;;;;;;;23.00;72.50;;;;;;5037743;28;43556;-80
2023/10/06 08:30:24;;;;;;;;;;;23.20;72.80;;;;;;5032150;28;43090;-80
2023/10/06 08:32:52;;;;;;;;;;;23.10;72.50;;;;;;5024919;28;43578;-80
2023/10/06 08:35:17;;;;;;;;;;;23.30;72.40;;;;;;5029488;28;43174;-80
2023/10/06 08:37:43;;;;;;;;;;;23.20;73.20;;;;;;5021966;28;42971;-81
2023/10/06 08:40:16;;;;;;;;;;;23.30;73.10;;;;;;5023145;28;43003;-80
2023/10/06 08:42:45;;;;;;;;;;;23.20;72.60;;;;;;5023279;28;44402;-80
2023/10/06 08:45:11;;;;;;;;;;;23.30;73.00;;;;;;5023807;28;42981;-80
2023/10/06 08:47:37;;;;;;;;;;;23.20;72.20;;;;;;5027668;28;43140;-79
2023/10/06 08:50:03;;;;;;;;;;;23.60;72.90;;;;;;5034192;28;43012;-79
2023/10/06 08:52:29;;;;;;;;;;;23.30;72.30;;;;;;5027948;28;43000;-79
2023/10/06 08:54:56;;;;;;;;;;;23.30;72.30;;;;;;5009030;28;43191;-80
2023/10/06 08:57:24;;;;;;;;;;;23.50;72.90;;;;;;5029247;28;43594;-80
2023/10/06 08:59:50;;;;;;;;;;;23.30;72.20;;;;;;5033670;28;43225;-80
2023/10/06 09:02:17;;;;;;;;;;;23.20;72.60;;;;;;5027679;28;43028;-80
2023/10/06 09:04:42;;;;;;;;;;;23.20;72.50;;;;;;5035298;28;42964;-81
2023/10/06 09:07:09;;;;;;;;;;;23.40;72.30;;;;;;5014994;28;44950;-80
2023/10/06 09:09:36;;;;;;;;;;;23.40;72.70;;;;;;5026008;28;42976;-80
2023/10/06 09:12:03;;;;;;;;;;;23.40;72.10;;;;;;5026328;28;42929;-81
2023/10/06 09:14:29;;;;;;;;;;;23.40;72.90;;;;;;5030360;28;43754;-80
2023/10/06 09:17:01;;;;;;;;;;;23.40;72.80;;;;;;5029278;28;43030;-84
2023/10/06 09:19:26;;;;;;;;;;;23.40;72.30;;;;;;5041696;28;43015;-80
2023/10/06 09:22:02;;;;;;;;;;;23.50;72.20;;;;;;5036539;28;43652;-82
2023/10/06 09:24:27;;;;;;;;;;;23.50;71.60;;;;;;5045446;28;42893;-80
2023/10/06 09:26:55;;;;;;;;;;;23.30;70.40;;;;;;5023085;28;42974;-81
2023/10/06 09:29:33;;;;;;;;;;;23.30;70.90;;;;;;5025903;28;42983;-81
2023/10/06 09:32:00;;;;;;;;;;;23.40;69.10;;;;;;5030918;28;43589;-79
2023/10/06 09:34:27;;;;;;;;;;;23.40;71.10;;;;;;5025193;28;42847;-80
2023/10/06 09:36:53;;;;;;;;;;;23.40;71.00;;;;;;5025058;28;43064;-82
2023/10/06 09:39:32;;;;;;;;;;;23.40;70.90;;;;;;5033375;28;43000;-81
2023/10/06 09:42:00;;;;;;;;;;;23.40;68.90;;;;;;5025042;28;43012;-80
2023/10/06 09:44:27;;;;;;;;;;;23.50;70.00;;;;;;5025512;28;42979;-81
2023/10/06 09:46:53;;;;;;;;;;;23.40;71.30;;;;;;5024651;28;43944;-82
2023/10/06 09:49:18;;;;;;;;;;;23.50;70.30;;;;;;5024727;28;43029;-79
2023/10/06 09:51:45;;;;;;;;;;;23.20;69.90;;;;;;5038672;28;43606;-81
2023/10/06 09:54:12;;;;;;;;;;;23.50;70.30;;;;;;5040095;28;42845;-82
2023/10/06 09:56:41;;;;;;;;;;;23.60;70.10;;;;;;5038070;28;43605;-79
2023/10/06 09:59:07;;;;;;;;;;;23.50;68.30;;;;;;5043603;28;43062;-79
2023/10/06 10:01:34;;;;;;;;;;;23.60;70.70;;;;;;5025822;28;44902;-80
2023/10/06 10:04:01;;;;;;;;;;;23.80;70.60;;;;;;5024781;28;43114;-79
2023/10/06 10:06:27;;;;;;;;;;;23.60;70.50;;;;;;5034697;28;42953;-81
2023/10/06 10:08:54;;;;;;;;;;;23.50;70.50;;;;;;5050462;28;44241;-82
2023/10/06 10:11:30;;;;;;;;;;;23.70;70.00;;;;;;5033206;28;42906;-79
2023/10/06 10:14:02;;;;;;;;;;;23.50;70.10;;;;;;5009296;28;42808;-83
2023/10/06 10:16:46;;;;;;;;;;;23.50;70.10;;;;;;5019814;28;43488;-79
2023/10/06 10:19:14;;;;;;;;;;;23.50;67.50;;;;;;5025334;28;43077;-79
2023/10/06 10:21:41;;;;;;;;;;;23.60;70.10;;;;;;5027878;28;42878;-81
2023/10/06 10:24:12;;;;;;;;;;;23.40;69.00;;;;;;5027588;28;42946;-81
2023/10/06 10:26:39;;;;;;;;;;;23.60;67.10;;;;;;5026868;28;43485;-82
2023/10/06 10:29:13;;;;;;;;;;;23.60;69.10;;;;;;5043010;28;42917;-81
2023/10/06 10:31:42;;;;;;;;;;;23.50;67.20;;;;;;5042700;28;43714;-83
2023/10/06 10:34:08;;;;;;;;;;;23.80;67.30;;;;;;5042699;28;42905;-80
2023/10/06 10:36:34;;;;;;;;;;;23.60;69.60;;;;;;5037593;28;43588;-80
2023/10/06 10:39:01;;;;;;;;;;;24.70;69.40;;;;;;5034535;28;42935;-84
2023/10/06 10:41:29;;;;;;;;;;;23.70;69.20;;;;;;5026302;28;44229;-80
2023/10/06 10:44:00;;;;;;;;;;;23.50;69.40;;;;;;5024307;28;42881;-82
2023/10/06 10:46:42;;;;;;;;;;;23.40;69.30;;;;;;5024095;28;43537;-80
2023/10/06 10:49:09;;;;;;;;;;;23.60;67.00;;;;;;5024474;28;42910;-80
2023/10/06 10:51:53;;;;;;;;;;;23.60;69.60;;;;;;5005993;28;43527;-85
2023/10/06 10:54:22;;;;;;;;;;;23.50;67.00;;;;;;5024228;28;42969;-80
2023/10/06 10:56:51;;;;;;;;;;;23.50;68.70;;;;;;5020696;28;42941;-80
2023/10/06 10:59:18;;;;;;;;;;;23.60;68.50;;;;;;5032573;28;43182;-80
2023/10/06 11:01:48;;;;;;;;;;;23.50;68.40;;;;;;5023526;28;43806;-82
2023/10/06 11:04:21;;;;;;;;;;;23.60;69.00;;;;;;5024271;28;42989;-83
2023/10/06 11:06:50;;;;;;;;;;;23.50;68.80;;;;;;5028262;28;44100;-81
2023/10/06 11:09:26;;;;;;;;;;;23.70;66.50;;;;;;5026151;28;43104;-87
2023/10/06 11:12:14;;;;;;;;;;;23.70;66.40;;;;;;5026356;28;43468;-80
2023/10/06 11:14:43;;;;;;;;;;;23.50;65.30;;;;;;5000675;28;43035;-80
2023/10/06 11:17:10;;;;;;;;;;;23.60;65.90;;;;;;5023631;28;42942;-84
2023/10/06 11:19:38;;;;;;;;;;;23.70;67.60;;;;;;5038182;28;42927;-83
2023/10/06 11:22:10;;;;;;;;;;;23.70;67.80;;;;;;5023952;28;44075;-82
2023/10/06 11:24:36;;;;;;;;;;;23.60;65.20;;;;;;5023674;28;43003;-85
2023/10/06 11:27:15;;;;;;;;;;;23.70;67.20;;;;;;5031732;28;43281;-85
2023/10/06 11:29:40;;;;;;;;;;;23.70;65.50;;;;;;5031069;28;43037;-84
2023/10/06 11:32:06;;;;;;;;;;;23.60;67.20;;;;;;5026399;28;43366;-81
2023/10/06 11:34:32;;;;;;;;;;;21.50;65.70;;;;;;5026393;28;42982;-81
2023/10/06 11:36:57;;;;;;;;;;;23.80;67.90;;;;;;5024044;28;43369;-81
2023/10/06 11:39:29;;;;;;;;;;;23.60;68.20;;;;;;5024639;28;42985;-81
2023/10/06 11:42:13;;;;;;;;;;;23.60;65.20;;;;;;5023293;28;43996;-80
2023/10/06 11:44:38;;;;;;;;;;;23.40;64.80;;;;;;5021468;28;42988;-81
2023/10/06 11:47:05;;;;;;;;;;;23.70;67.50;;;;;;5024023;28;43117;-82
2023/10/06 11:49:30;;;;;;;;;;;23.70;67.50;;;;;;5023291;28;42929;-81
2023/10/06 11:51:57;;;;;;;;;;;23.70;66.70;;;;;;5025157;28;42957;-81
2023/10/06 11:54:22;;;;;;;;;;;23.60;66.70;;;;;;5022814;28;43055;-80
2023/10/06 11:56:49;;;;;;;;;;;23.70;66.90;;;;;;5023668;28;43559;-80
2023/10/06 11:59:20;;;;;;;;;;;23.60;67.10;;;;;;5021887;28;43091;-81
2023/10/06 12:01:46;;;;;;;;;;;23.60;64.60;;;;;;5040675;28;45184;-81
2023/10/06 12:04:30;;;;;;;;;;;23.70;66.50;;;;;;5011655;28;44091;-81
2023/10/06 12:06:55;;;;;;;;;;;23.70;64.60;;;;;;5027676;28;42932;-79
2023/10/06 12:09:30;;;;;;;;;;;23.70;65.70;;;;;;5030216;28;42963;-81
2023/10/06 12:11:59;;;;;;;;;;;23.80;64.30;;;;;;5008636;28;43397;-81
2023/10/06 12:14:27;;;;;;;;;;;23.60;66.70;;;;;;5026221;28;43246;-81
2023/10/06 12:19:57;;;;;;;;;;;23.80;65.90;;;;;;5035209;28;43107;-81
2023/10/06 12:22:34;;;;;;;;;;;23.70;66.10;;;;;;5041640;28;43490;-81
2023/10/06 12:25:00;;;;;;;;;;;23.70;63.60;;;;;;5040426;28;43245;-80
2023/10/06 12:27:27;;;;;;;;;;;23.70;65.30;;;;;;5040928;28;43529;-80
2023/10/06 12:29:55;;;;;;;;;;;23.70;65.20;;;;;;5043724;28;43018;-81
2023/10/06 12:32:21;;;;;;;;;;;23.90;65.60;;;;;;5037145;28;43479;-81
2023/10/06 12:34:46;;;;;;;;;;;23.60;65.00;;;;;;5044228;28;43016;-81
2023/10/06 12:37:15;;;;;;;;;;;23.80;64.60;;;;;;5042033;28;43774;-80
2023/10/06 12:39:41;;;;;;;;;;;23.70;64.40;;;;;;5027021;28;42972;-81
2023/10/06 12:42:07;;;;;;;;;;;23.80;64.50;;;;;;5043842;28;43454;-81
2023/10/06 12:44:39;;;;;;;;;;;23.80;64.20;;;;;;5024124;28;43085;-80
2023/10/06 12:47:10;;;;;;;;;;;23.70;64.20;;;;;;5024946;28;44646;-81
2023/10/06 12:49:36;;;;;;;;;;;23.80;64.50;;;;;;5044559;28;42843;-81
2023/10/06 12:52:02;;;;;;;;;;;23.70;63.30;;;;;;5056333;28;43523;-81
2023/10/06 12:54:29;;;;;;;;;;;23.90;63.30;;;;;;5046205;28;43052;-80
2023/10/06 12:56:55;;;;;;;;;;;23.80;63.70;;;;;;5051220;28;43627;-80
2023/10/06 12:59:21;;;;;;;;;;;23.60;63.20;;;;;;5028790;28;43162;-82
2023/10/06 13:01:49;;;;;;;;;;;23.70;63.30;;;;;;5046624;28;43600;-82
2023/10/06 13:04:15;;;;;;;;;;;23.60;63.30;;;;;;5041792;28;42857;-82
2023/10/06 13:06:41;;;;;;;;;;;23.60;63.10;;;;;;5029964;28;43857;-80
2023/10/06 13:09:08;;;;;;;;;;;23.80;63.00;;;;;;5013642;28;43171;-80
2023/10/06 13:11:34;;;;;;;;;;;23.80;62.80;;;;;;5035072;28;42980;-81
2023/10/06 13:14:03;;;;;;;;;;;23.90;62.50;;;;;;5039610;28;43096;-80
2023/10/06 13:16:31;;;;;;;;;;;23.90;63.10;;;;;;5047173;28;43499;-81
2023/10/06 13:18:57;;;;;;;;;;;23.80;60.70;;;;;;5030758;28;42969;-82
2023/10/06 13:21:23;;;;;;;;;;;23.90;63.20;;;;;;5026050;28;42917;-80
2023/10/06 13:23:48;;;;;;;;;;;24.00;62.10;;;;;;5030259;28;43013;-81
2023/10/06 13:26:14;;;;;;;;;;;23.90;62.50;;;;;;5039531;28;42959;-80
2023/10/06 13:28:42;;;;;;;;;;;23.70;62.30;;;;;;5033490;28;42990;-80
2023/10/06 13:31:10;;;;;;;;;;;23.70;62.50;;;;;;5038849;28;43500;-81
2023/10/06 13:33:35;;;;;;;;;;;23.60;61.30;;;;;;5027853;28;42989;-80
2023/10/06 13:36:02;;;;;;;;;;;23.80;60.70;;;;;;5044202;28;42936;-80
2023/10/06 13:38:27;;;;;;;;;;;23.80;62.00;;;;;;5023640;28;43015;-80
2023/10/06 13:40:54;;;;;;;;;;;23.90;61.70;;;;;;5035871;28;43232;-80
2023/10/06 13:43:20;;;;;;;;;;;23.70;61.20;;;;;;5027959;28;43292;-81
2023/10/06 13:45:46;;;;;;;;;;;23.90;61.30;;;;;;5022082;28;44472;-80
2023/10/06 13:48:14;;;;;;;;;;;23.90;62.30;;;;;;5023626;28;42913;-80
2023/10/06 13:50:40;;;;;;;;;;;23.90;62.10;;;;;;5026258;28;43002;-81
2023/10/06 13:53:06;;;;;;;;;;;23.90;62.40;;;;;;5024397;28;43078;-81
2023/10/06 13:55:31;;;;;;;;;;;23.80;62.60;;;;;;5022611;28;43083;-80
2023/10/06 13:58:04;;;;;;;;;;;23.80;62.30;;;;;;5018270;28;43191;-80
2023/10/06 14:02:58;;;;;;;;;;;23.90;61.30;;;;;;5039539;28;42834;-80
2023/10/06 14:05:25;;;;;;;;;;;23.70;60.90;;;;;;5025169;28;42989;-80
2023/10/06 14:07:51;;;;;;;;;;;24.00;60.80;;;;;;5023211;28;42999;-81
2023/10/06 14:10:21;;;;;;;;;;;23.80;60.80;;;;;;5023864;28;43051;-79
2023/10/06 14:12:49;;;;;;;;;;;24.50;61.50;;;;;;5023218;28;43135;-80
2023/10/06 14:15:30;;;;;;;;;;;23.90;61.20;;;;;;5023739;28;42970;-80
2023/10/06 14:17:59;;;;;;;;;;;23.80;61.60;;;;;;5035905;28;43024;-80
2023/10/06 14:20:27;;;;;;;;;;;23.70;59.20;;;;;;5025470;28;43047;-81
2023/10/06 14:22:55;;;;;;;;;;;23.90;61.00;;;;;;5024062;28;43099;-80
2023/10/06 14:25:22;;;;;;;;;;;23.90;61.00;;;;;;5024241;28;43404;-80
2023/10/06 14:27:49;;;;;;;;;;;23.80;61.30;;;;;;5024029;28;42951;-80
2023/10/06 14:30:43;;;;;;;;;;;23.90;60.50;;;;;;5024137;28;44283;-80
2023/10/06 14:35:53;;;;;;;;;;;23.90;60.50;;;;;;5030697;28;43008;-80
2023/10/06 14:46:26;;;;;;;;;;;23.90;60.80;;;;;;5013530;28;43009;-80